sensor_id;sensor_type;location;lat;lon;timestamp;pressure;altitude;pressure_sealevel;temperature;humidity
42671;BME280;28283;55.426;37.756;2023-06-19T00:02:55;99591.28;;;15.98;47.12
42671;BME280;28283;55.426;37.756;2023-06-19T00:07:56;99585.50;;;15.95;47.37
42671;BME280;28283;55.426;37.756;2023-06-19T00:12:56;99600.13;;;15.94;47.15
42671;BME280;28283;55.426;37.756;2023-06-19T00:17:58;99605.31;;;15.95;47.27
42671;BME280;28283;55.426;37.756;2023-06-19T00:22:59;99600.66;;;15.84;47.49
42671;BME280;28283;55.426;37.756;2023-06-19T00:28:00;99561.41;;;15.56;47.58
42671;BME280;28283;55.426;37.756;2023-06-19T00:33:01;99598.88;;;15.78;47.70
42671;BME280;28283;55.426;37.756;2023-06-19T00:38:05;99592.09;;;15.69;48.21
42671;BME280;28283;55.426;37.756;2023-06-19T00:43:06;99558.09;;;15.36;48.61
42671;BME280;28283;55.426;37.756;2023-06-19T00:48:06;99562.31;;;15.32;48.91
42671;BME280;28283;55.426;37.756;2023-06-19T00:53:07;99592.84;;;15.39;48.92
42671;BME280;28283;55.426;37.756;2023-06-19T00:58:09;99571.66;;;15.17;49.10
42671;BME280;28283;55.426;37.756;2023-06-19T01:03:10;99578.03;;;15.04;49.54
42671;BME280;28283;55.426;37.756;2023-06-19T01:13:28;99616.16;;;15.03;50.27
42671;BME280;28283;55.426;37.756;2023-06-19T01:18:32;99618.09;;;14.96;50.38
42671;BME280;28283;55.426;37.756;2023-06-19T01:23:33;99583.34;;;14.74;50.96
42671;BME280;28283;55.426;37.756;2023-06-19T01:28:34;99575.63;;;14.46;51.24
42671;BME280;28283;55.426;37.756;2023-06-19T01:33:38;99609.88;;;14.59;51.87
42671;BME280;28283;55.426;37.756;2023-06-19T01:38:40;99613.25;;;14.54;51.67
42671;BME280;28283;55.426;37.756;2023-06-19T01:43:45;99615.56;;;14.50;51.53
42671;BME280;28283;55.426;37.756;2023-06-19T01:48:46;99594.19;;;14.42;51.67
42671;BME280;28283;55.426;37.756;2023-06-19T01:53:46;99608.09;;;14.46;51.89
42671;BME280;28283;55.426;37.756;2023-06-19T01:58:47;99601.50;;;14.35;51.35
42671;BME280;28283;55.426;37.756;2023-06-19T02:03:47;99599.53;;;14.24;51.66
42671;BME280;28283;55.426;37.756;2023-06-19T02:08:48;99613.00;;;14.30;51.94
42671;BME280;28283;55.426;37.756;2023-06-19T02:13:49;99617.63;;;14.23;52.33
42671;BME280;28283;55.426;37.756;2023-06-19T02:18:50;99585.75;;;14.00;52.11
42671;BME280;28283;55.426;37.756;2023-06-19T02:23:50;99605.28;;;14.02;52.48
42671;BME280;28283;55.426;37.756;2023-06-19T02:28:51;99608.94;;;14.15;52.44
42671;BME280;28283;55.426;37.756;2023-06-19T02:33:51;99609.56;;;14.17;52.57
42671;BME280;28283;55.426;37.756;2023-06-19T02:38:52;99546.00;;;13.75;52.16
42671;BME280;28283;55.426;37.756;2023-06-19T02:43:53;99624.47;;;14.26;52.19
42671;BME280;28283;55.426;37.756;2023-06-19T02:48:53;99616.78;;;14.23;52.42
42671;BME280;28283;55.426;37.756;2023-06-19T02:53:54;99609.91;;;14.27;52.26
42671;BME280;28283;55.426;37.756;2023-06-19T02:58:55;99609.81;;;14.40;51.78
42671;BME280;28283;55.426;37.756;2023-06-19T03:03:55;99595.25;;;14.41;51.91
42671;BME280;28283;55.426;37.756;2023-06-19T03:08:56;99599.50;;;14.56;51.85
42671;BME280;28283;55.426;37.756;2023-06-19T03:13:57;99609.34;;;14.75;51.35
42671;BME280;28283;55.426;37.756;2023-06-19T03:18:57;99556.56;;;14.66;50.90
42671;BME280;28283;55.426;37.756;2023-06-19T03:23:58;99600.91;;;15.08;51.11
42671;BME280;28283;55.426;37.756;2023-06-19T03:28:59;99603.47;;;15.22;50.22
42671;BME280;28283;55.426;37.756;2023-06-19T03:33:59;99586.31;;;15.28;49.32
42671;BME280;28283;55.426;37.756;2023-06-19T03:39:00;99594.28;;;15.41;49.06
42671;BME280;28283;55.426;37.756;2023-06-19T03:44:01;99605.78;;;15.55;49.17
42671;BME280;28283;55.426;37.756;2023-06-19T03:49:01;99619.25;;;15.80;48.79
42671;BME280;28283;55.426;37.756;2023-06-19T03:54:05;99599.38;;;15.87;48.07
42671;BME280;28283;55.426;37.756;2023-06-19T03:59:05;99609.13;;;16.06;47.39
42671;BME280;28283;55.426;37.756;2023-06-19T04:04:06;99625.59;;;16.35;47.03
42671;BME280;28283;55.426;37.756;2023-06-19T04:09:07;99620.19;;;16.47;46.70
42671;BME280;28283;55.426;37.756;2023-06-19T04:14:07;99624.91;;;16.63;46.44
42671;BME280;28283;55.426;37.756;2023-06-19T04:19:08;99592.34;;;16.63;45.54
42671;BME280;28283;55.426;37.756;2023-06-19T04:24:09;99619.81;;;16.85;45.31
42671;BME280;28283;55.426;37.756;2023-06-19T04:29:10;99600.31;;;16.88;45.21
42671;BME280;28283;55.426;37.756;2023-06-19T04:34:18;99620.25;;;17.17;45.15
42671;BME280;28283;55.426;37.756;2023-06-19T04:39:21;99597.81;;;17.22;44.01
42671;BME280;28283;55.426;37.756;2023-06-19T04:44:22;99609.81;;;17.38;44.37
42671;BME280;28283;55.426;37.756;2023-06-19T04:49:22;99606.47;;;17.60;43.60
42671;BME280;28283;55.426;37.756;2023-06-19T04:54:24;99612.91;;;17.82;42.92
42671;BME280;28283;55.426;37.756;2023-06-19T04:59:24;99584.28;;;17.80;43.25
42671;BME280;28283;55.426;37.756;2023-06-19T05:04:25;99616.44;;;18.23;41.65
42671;BME280;28283;55.426;37.756;2023-06-19T05:09:25;99609.84;;;18.53;42.59
42671;BME280;28283;55.426;37.756;2023-06-19T05:14:26;99604.72;;;18.57;42.91
42671;BME280;28283;55.426;37.756;2023-06-19T05:19:27;99607.47;;;18.91;42.45
42671;BME280;28283;55.426;37.756;2023-06-19T05:24:27;99600.09;;;18.91;41.93
42671;BME280;28283;55.426;37.756;2023-06-19T05:29:28;99614.13;;;19.17;40.24
42671;BME280;28283;55.426;37.756;2023-06-19T05:34:31;99603.66;;;19.31;39.91
42671;BME280;28283;55.426;37.756;2023-06-19T05:39:31;99607.75;;;19.72;40.50
42671;BME280;28283;55.426;37.756;2023-06-19T05:44:32;99606.19;;;19.76;39.04
42671;BME280;28283;55.426;37.756;2023-06-19T05:49:32;99603.09;;;19.95;40.06
42671;BME280;28283;55.426;37.756;2023-06-19T05:54:33;99594.84;;;19.90;37.13
42671;BME280;28283;55.426;37.756;2023-06-19T05:59:33;99602.13;;;20.06;36.39
42671;BME280;28283;55.426;37.756;2023-06-19T06:04:34;99607.59;;;20.38;37.85
42671;BME280;28283;55.426;37.756;2023-06-19T06:09:34;99600.31;;;20.44;36.87
42671;BME280;28283;55.426;37.756;2023-06-19T06:14:35;99610.22;;;20.88;37.84
42671;BME280;28283;55.426;37.756;2023-06-19T06:19:37;99596.00;;;20.86;36.63
42671;BME280;28283;55.426;37.756;2023-06-19T06:24:39;99604.59;;;21.05;35.27
42671;BME280;28283;55.426;37.756;2023-06-19T06:29:39;99608.72;;;21.60;36.24
42671;BME280;28283;55.426;37.756;2023-06-19T06:34:40;99593.56;;;21.32;34.15
42671;BME280;28283;55.426;37.756;2023-06-19T06:39:40;99576.56;;;21.25;33.23
42671;BME280;28283;55.426;37.756;2023-06-19T06:44:41;99582.59;;;21.27;33.41
42671;BME280;28283;55.426;37.756;2023-06-19T06:49:42;99597.09;;;21.32;33.78
42671;BME280;28283;55.426;37.756;2023-06-19T06:54:42;99597.00;;;21.17;32.90
42671;BME280;28283;55.426;37.756;2023-06-19T06:59:43;99599.72;;;21.12;33.33
42671;BME280;28283;55.426;37.756;2023-06-19T07:04:44;99618.53;;;21.51;33.35
42671;BME280;28283;55.426;37.756;2023-06-19T07:09:44;99556.22;;;21.63;32.94
42671;BME280;28283;55.426;37.756;2023-06-19T07:14:45;99556.56;;;21.82;32.29
42671;BME280;28283;55.426;37.756;2023-06-19T07:19:46;99580.66;;;22.16;32.41
42671;BME280;28283;55.426;37.756;2023-06-19T07:24:46;99565.06;;;22.01;32.45
42671;BME280;28283;55.426;37.756;2023-06-19T07:29:47;99566.72;;;22.07;32.44
42671;BME280;28283;55.426;37.756;2023-06-19T07:34:48;99575.22;;;22.21;32.16
42671;BME280;28283;55.426;37.756;2023-06-19T07:39:49;99575.25;;;22.26;32.11
42671;BME280;28283;55.426;37.756;2023-06-19T07:44:50;99561.78;;;22.04;32.45
42671;BME280;28283;55.426;37.756;2023-06-19T07:49:51;99488.38;;;21.50;32.79
42671;BME280;28283;55.426;37.756;2023-06-19T07:54:54;99577.13;;;22.10;33.29
42671;BME280;28283;55.426;37.756;2023-06-19T07:59:55;99568.66;;;22.17;31.66
42671;BME280;28283;55.426;37.756;2023-06-19T08:04:55;99551.97;;;22.34;32.43
42671;BME280;28283;55.426;37.756;2023-06-19T08:09:56;99578.56;;;22.54;31.70
42671;BME280;28283;55.426;37.756;2023-06-19T08:14:56;99562.34;;;22.68;31.37
42671;BME280;28283;55.426;37.756;2023-06-19T08:19:57;99561.81;;;22.66;31.58
42671;BME280;28283;55.426;37.756;2023-06-19T08:24:58;99564.84;;;22.28;30.90
42671;BME280;28283;55.426;37.756;2023-06-19T08:29:58;99561.28;;;22.38;31.50
42671;BME280;28283;55.426;37.756;2023-06-19T08:34:59;99547.81;;;22.21;30.37
42671;BME280;28283;55.426;37.756;2023-06-19T08:39:59;99561.81;;;22.15;30.27
42671;BME280;28283;55.426;37.756;2023-06-19T08:45:00;99528.09;;;22.09;29.98
42671;BME280;28283;55.426;37.756;2023-06-19T08:50:01;99530.91;;;22.29;30.33
42671;BME280;28283;55.426;37.756;2023-06-19T08:55:02;99548.69;;;22.32;30.00
42671;BME280;28283;55.426;37.756;2023-06-19T09:00:03;99525.16;;;22.31;29.66
42671;BME280;28283;55.426;37.756;2023-06-19T09:05:24;99534.41;;;22.76;29.76
42671;BME280;28283;55.426;37.756;2023-06-19T09:10:26;99504.28;;;22.61;28.13
42671;BME280;28283;55.426;37.756;2023-06-19T09:15:29;99526.78;;;22.47;29.25
42671;BME280;28283;55.426;37.756;2023-06-19T09:20:32;99535.81;;;22.53;28.48
42671;BME280;28283;55.426;37.756;2023-06-19T09:25:44;99542.66;;;22.51;29.01
42671;BME280;28283;55.426;37.756;2023-06-19T09:30:59;99509.81;;;22.45;28.75
42671;BME280;28283;55.426;37.756;2023-06-19T09:36:02;99536.06;;;22.57;29.33
42671;BME280;28283;55.426;37.756;2023-06-19T09:41:04;99524.78;;;22.84;28.49
42671;BME280;28283;55.426;37.756;2023-06-19T09:46:06;99520.69;;;22.81;28.35
42671;BME280;28283;55.426;37.756;2023-06-19T09:56:15;99498.72;;;22.97;28.68
42671;BME280;28283;55.426;37.756;2023-06-19T10:01:17;99489.03;;;23.25;28.76
42671;BME280;28283;55.426;37.756;2023-06-19T10:06:22;99489.13;;;23.59;27.99
42671;BME280;28283;55.426;37.756;2023-06-19T10:11:22;99486.25;;;23.85;27.40
42671;BME280;28283;55.426;37.756;2023-06-19T10:16:24;99477.41;;;24.23;27.17
42671;BME280;28283;55.426;37.756;2023-06-19T10:21:25;99482.41;;;24.50;26.55
42671;BME280;28283;55.426;37.756;2023-06-19T10:26:33;99490.41;;;24.75;26.70
42671;BME280;28283;55.426;37.756;2023-06-19T10:31:34;99468.69;;;24.74;26.21
42671;BME280;28283;55.426;37.756;2023-06-19T10:36:36;99483.31;;;24.40;26.33
42671;BME280;28283;55.426;37.756;2023-06-19T10:41:39;99473.09;;;23.77;27.12
42671;BME280;28283;55.426;37.756;2023-06-19T10:46:40;99422.53;;;23.43;27.90
42671;BME280;28283;55.426;37.756;2023-06-19T10:51:41;99461.09;;;24.36;26.77
42671;BME280;28283;55.426;37.756;2023-06-19T10:56:45;99473.03;;;25.04;25.94
42671;BME280;28283;55.426;37.756;2023-06-19T11:01:49;99438.69;;;25.02;26.02
42671;BME280;28283;55.426;37.756;2023-06-19T11:06:50;99412.16;;;25.11;25.73
42671;BME280;28283;55.426;37.756;2023-06-19T11:11:52;99453.50;;;25.82;25.22
42671;BME280;28283;55.426;37.756;2023-06-19T11:16:52;99432.16;;;24.73;24.55
42671;BME280;28283;55.426;37.756;2023-06-19T11:21:53;99439.44;;;24.00;26.24
42671;BME280;28283;55.426;37.756;2023-06-19T11:26:56;99450.09;;;24.36;25.79
42671;BME280;28283;55.426;37.756;2023-06-19T11:32:11;99443.06;;;25.03;24.74
42671;BME280;28283;55.426;37.756;2023-06-19T11:37:13;99441.47;;;25.59;24.28
42671;BME280;28283;55.426;37.756;2023-06-19T11:42:15;99434.59;;;26.13;23.38
42671;BME280;28283;55.426;37.756;2023-06-19T11:47:18;99408.09;;;26.31;23.11
42671;BME280;28283;55.426;37.756;2023-06-19T11:52:19;99413.19;;;26.52;21.60
42671;BME280;28283;55.426;37.756;2023-06-19T11:57:19;99420.66;;;26.51;20.13
42671;BME280;28283;55.426;37.756;2023-06-19T12:02:20;99407.31;;;26.72;20.10
42671;BME280;28283;55.426;37.756;2023-06-19T12:07:21;99414.50;;;25.42;20.17
42671;BME280;28283;55.426;37.756;2023-06-19T12:12:21;99402.13;;;25.77;21.54
42671;BME280;28283;55.426;37.756;2023-06-19T12:17:22;99384.16;;;25.47;20.91
42671;BME280;28283;55.426;37.756;2023-06-19T12:22:23;99402.94;;;25.59;22.04
42671;BME280;28283;55.426;37.756;2023-06-19T12:27:23;99405.84;;;25.67;22.16
42671;BME280;28283;55.426;37.756;2023-06-19T12:32:24;99390.75;;;25.65;22.04
42671;BME280;28283;55.426;37.756;2023-06-19T12:37:25;99364.69;;;25.76;22.23
42671;BME280;28283;55.426;37.756;2023-06-19T12:42:25;99383.09;;;26.27;21.30
42671;BME280;28283;55.426;37.756;2023-06-19T12:47:26;99339.88;;;25.95;21.29
42671;BME280;28283;55.426;37.756;2023-06-19T12:52:27;99366.88;;;26.40;21.21
42671;BME280;28283;55.426;37.756;2023-06-19T12:57:27;99357.59;;;26.63;20.78
42671;BME280;28283;55.426;37.756;2023-06-19T13:02:28;99350.84;;;26.70;20.64
42671;BME280;28283;55.426;37.756;2023-06-19T13:07:28;99350.81;;;26.56;20.63
42671;BME280;28283;55.426;37.756;2023-06-19T13:12:29;99351.22;;;26.21;20.91
42671;BME280;28283;55.426;37.756;2023-06-19T13:17:29;99333.56;;;26.22;21.40
42671;BME280;28283;55.426;37.756;2023-06-19T13:22:31;99327.56;;;26.20;21.97
42671;BME280;28283;55.426;37.756;2023-06-19T13:27:32;99336.63;;;27.13;21.21
42671;BME280;28283;55.426;37.756;2023-06-19T13:32:32;99311.03;;;27.57;20.47
42671;BME280;28283;55.426;37.756;2023-06-19T13:37:35;99328.25;;;27.86;20.74
42671;BME280;28283;55.426;37.756;2023-06-19T13:42:35;99262.66;;;27.91;19.90
42671;BME280;28283;55.426;37.756;2023-06-19T13:47:37;99316.75;;;28.24;19.73
42671;BME280;28283;55.426;37.756;2023-06-19T13:52:37;99312.44;;;27.77;19.51
42671;BME280;28283;55.426;37.756;2023-06-19T13:57:38;99284.13;;;27.40;20.12
42671;BME280;28283;55.426;37.756;2023-06-19T14:02:41;99280.22;;;27.64;19.86
42671;BME280;28283;55.426;37.756;2023-06-19T14:07:41;99301.66;;;27.67;20.14
42671;BME280;28283;55.426;37.756;2023-06-19T14:12:43;99291.84;;;26.93;19.88
42671;BME280;28283;55.426;37.756;2023-06-19T14:17:44;99305.50;;;26.76;19.67
42671;BME280;28283;55.426;37.756;2023-06-19T14:22:45;99300.59;;;26.73;19.87
42671;BME280;28283;55.426;37.756;2023-06-19T14:27:45;99287.25;;;26.24;20.24
42671;BME280;28283;55.426;37.756;2023-06-19T14:32:47;99247.78;;;25.55;21.21
42671;BME280;28283;55.426;37.756;2023-06-19T14:37:48;99260.13;;;25.57;21.59
42671;BME280;28283;55.426;37.756;2023-06-19T14:42:48;99271.66;;;25.59;21.27
42671;BME280;28283;55.426;37.756;2023-06-19T14:47:50;99291.41;;;25.47;21.49
42671;BME280;28283;55.426;37.756;2023-06-19T14:52:50;99241.56;;;25.16;21.88
42671;BME280;28283;55.426;37.756;2023-06-19T14:57:51;99284.81;;;25.10;21.90
42671;BME280;28283;55.426;37.756;2023-06-19T15:02:51;99243.44;;;24.83;22.52
42671;BME280;28283;55.426;37.756;2023-06-19T15:07:52;99238.75;;;25.02;21.86
42671;BME280;28283;55.426;37.756;2023-06-19T15:12:53;99265.66;;;25.05;21.85
42671;BME280;28283;55.426;37.756;2023-06-19T15:17:53;99269.28;;;25.01;22.14
42671;BME280;28283;55.426;37.756;2023-06-19T15:22:55;99253.38;;;24.98;22.30
42671;BME280;28283;55.426;37.756;2023-06-19T15:27:55;99266.75;;;25.04;22.41
42671;BME280;28283;55.426;37.756;2023-06-19T15:32:56;99249.03;;;24.77;22.52
42671;BME280;28283;55.426;37.756;2023-06-19T15:37:57;99239.88;;;24.63;22.73
42671;BME280;28283;55.426;37.756;2023-06-19T15:42:58;99254.81;;;24.95;22.69
42671;BME280;28283;55.426;37.756;2023-06-19T15:47:59;99265.78;;;25.33;22.50
42671;BME280;28283;55.426;37.756;2023-06-19T15:53:00;99238.66;;;26.42;21.43
42671;BME280;28283;55.426;37.756;2023-06-19T15:58:01;99272.66;;;28.18;20.33
42671;BME280;28283;55.426;37.756;2023-06-19T16:03:02;99225.09;;;28.39;19.89
42671;BME280;28283;55.426;37.756;2023-06-19T16:08:02;99225.94;;;29.01;19.57
42671;BME280;28283;55.426;37.756;2023-06-19T16:13:03;99288.38;;;29.80;18.66
42671;BME280;28283;55.426;37.756;2023-06-19T16:18:04;99273.72;;;29.80;18.71
42671;BME280;28283;55.426;37.756;2023-06-19T16:23:05;99269.09;;;29.93;18.66
42671;BME280;28283;55.426;37.756;2023-06-19T16:28:06;99280.63;;;30.03;18.76
42671;BME280;28283;55.426;37.756;2023-06-19T16:33:06;99275.84;;;29.83;18.71
42671;BME280;28283;55.426;37.756;2023-06-19T16:38:07;99283.31;;;29.74;18.64
42671;BME280;28283;55.426;37.756;2023-06-19T16:43:09;99262.28;;;29.17;19.40
42671;BME280;28283;55.426;37.756;2023-06-19T16:48:10;99271.66;;;29.07;19.45
42671;BME280;28283;55.426;37.756;2023-06-19T16:53:11;99295.59;;;28.68;20.09
42671;BME280;28283;55.426;37.756;2023-06-19T16:58:13;99297.66;;;28.05;20.78
42671;BME280;28283;55.426;37.756;2023-06-19T17:03:13;99273.81;;;27.10;21.81
42671;BME280;28283;55.426;37.756;2023-06-19T17:08:16;99264.81;;;26.17;22.60
42671;BME280;28283;55.426;37.756;2023-06-19T17:13:17;99285.72;;;25.58;23.17
42671;BME280;28283;55.426;37.756;2023-06-19T17:18:17;99298.88;;;25.09;23.91
42671;BME280;28283;55.426;37.756;2023-06-19T17:23:18;99298.50;;;24.58;24.68
42671;BME280;28283;55.426;37.756;2023-06-19T17:28:19;99292.81;;;24.26;25.13
42671;BME280;28283;55.426;37.756;2023-06-19T17:33:19;99272.72;;;23.82;25.46
42671;BME280;28283;55.426;37.756;2023-06-19T17:38:20;99260.41;;;23.45;25.65
42671;BME280;28283;55.426;37.756;2023-06-19T17:43:20;99290.84;;;23.49;26.27
42671;BME280;28283;55.426;37.756;2023-06-19T17:48:21;99293.47;;;23.30;26.59
42671;BME280;28283;55.426;37.756;2023-06-19T17:53:22;99292.81;;;23.03;26.63
42671;BME280;28283;55.426;37.756;2023-06-19T17:58:23;99264.25;;;22.70;27.16
42671;BME280;28283;55.426;37.756;2023-06-19T18:03:23;99309.16;;;22.79;27.55
42671;BME280;28283;55.426;37.756;2023-06-19T18:08:24;99272.13;;;22.27;27.77
42671;BME280;28283;55.426;37.756;2023-06-19T18:13:25;99321.13;;;22.28;28.33
42671;BME280;28283;55.426;37.756;2023-06-19T18:18:25;99319.81;;;22.05;28.85
42671;BME280;28283;55.426;37.756;2023-06-19T18:23:26;99330.00;;;21.89;29.19
42671;BME280;28283;55.426;37.756;2023-06-19T18:28:27;99329.19;;;21.79;29.59
42671;BME280;28283;55.426;37.756;2023-06-19T18:33:28;99301.53;;;21.44;30.28
42671;BME280;28283;55.426;37.756;2023-06-19T18:38:28;99317.13;;;21.44;30.28
42671;BME280;28283;55.426;37.756;2023-06-19T18:43:29;99312.47;;;21.29;30.72
42671;BME280;28283;55.426;37.756;2023-06-19T18:48:29;99328.06;;;21.23;30.90
42671;BME280;28283;55.426;37.756;2023-06-19T18:53:30;99321.47;;;21.09;31.66
42671;BME280;28283;55.426;37.756;2023-06-19T18:58:31;99333.19;;;20.99;32.00
42671;BME280;28283;55.426;37.756;2023-06-19T19:03:31;99338.34;;;20.85;32.65
42671;BME280;28283;55.426;37.756;2023-06-19T19:08:33;99325.47;;;20.70;32.65
42671;BME280;28283;55.426;37.756;2023-06-19T19:13:34;99338.56;;;20.63;33.14
42671;BME280;28283;55.426;37.756;2023-06-19T19:18:34;99342.69;;;20.76;31.11
42671;BME280;28283;55.426;37.756;2023-06-19T19:23:35;99316.31;;;20.34;33.32
42671;BME280;28283;55.426;37.756;2023-06-19T19:28:36;99294.94;;;20.15;33.72
42671;BME280;28283;55.426;37.756;2023-06-19T19:33:37;99314.56;;;20.12;34.09
42671;BME280;28283;55.426;37.756;2023-06-19T19:38:37;99334.31;;;20.35;31.79
42671;BME280;28283;55.426;37.756;2023-06-19T19:43:38;99328.13;;;20.02;34.31
42671;BME280;28283;55.426;37.756;2023-06-19T19:48:38;99316.31;;;19.86;34.97
42671;BME280;28283;55.426;37.756;2023-06-19T19:53:39;99255.41;;;19.33;34.92
42671;BME280;28283;55.426;37.756;2023-06-19T19:58:40;99320.13;;;19.85;32.60
42671;BME280;28283;55.426;37.756;2023-06-19T20:03:40;99324.00;;;19.57;35.20
42671;BME280;28283;55.426;37.756;2023-06-19T20:08:43;99321.13;;;19.41;36.16
42671;BME280;28283;55.426;37.756;2023-06-19T20:13:44;99308.97;;;19.22;36.18
42671;BME280;28283;55.426;37.756;2023-06-19T20:18:44;99324.44;;;19.43;34.14
42671;BME280;28283;55.426;37.756;2023-06-19T20:23:46;99306.56;;;18.98;36.62
42671;BME280;28283;55.426;37.756;2023-06-19T20:28:47;99326.72;;;19.24;34.15
42671;BME280;28283;55.426;37.756;2023-06-19T20:33:49;99235.63;;;18.34;37.05
42671;BME280;28283;55.426;37.756;2023-06-19T20:38:49;99328.97;;;19.05;35.13
42671;BME280;28283;55.426;37.756;2023-06-19T20:43:50;99279.84;;;18.46;37.54
42671;BME280;28283;55.426;37.756;2023-06-19T20:48:50;99328.06;;;18.95;34.88
42671;BME280;28283;55.426;37.756;2023-06-19T20:53:51;99328.00;;;18.67;38.65
42671;BME280;28283;55.426;37.756;2023-06-19T20:58:51;99289.41;;;18.26;39.13
42671;BME280;28283;55.426;37.756;2023-06-19T21:03:56;99278.59;;;18.09;39.99
42671;BME280;28283;55.426;37.756;2023-06-19T21:08:56;99326.53;;;18.16;40.50
42671;BME280;28283;55.426;37.756;2023-06-19T21:13:59;99327.16;;;18.01;40.11
42671;BME280;28283;55.426;37.756;2023-06-19T21:19:00;99301.72;;;17.73;40.73
42671;BME280;28283;55.426;37.756;2023-06-19T21:24:01;99321.66;;;17.62;41.57
42671;BME280;28283;55.426;37.756;2023-06-19T21:29:01;99320.09;;;17.49;41.41
42671;BME280;28283;55.426;37.756;2023-06-19T21:34:02;99325.84;;;17.52;42.00
42671;BME280;28283;55.426;37.756;2023-06-19T21:39:03;99298.19;;;17.22;42.41
42671;BME280;28283;55.426;37.756;2023-06-19T21:44:03;99322.97;;;17.25;43.43
42671;BME280;28283;55.426;37.756;2023-06-19T21:49:04;99317.69;;;17.18;43.19
42671;BME280;28283;55.426;37.756;2023-06-19T21:54:05;99278.66;;;16.79;43.31
42671;BME280;28283;55.426;37.756;2023-06-19T21:59:05;99321.81;;;17.21;42.59
42671;BME280;28283;55.426;37.756;2023-06-19T22:04:06;99324.63;;;17.43;40.98
42671;BME280;28283;55.426;37.756;2023-06-19T22:09:07;99290.66;;;16.95;42.59
42671;BME280;28283;55.426;37.756;2023-06-19T22:14:07;99316.34;;;17.04;42.58
42671;BME280;28283;55.426;37.756;2023-06-19T22:19:08;99296.56;;;16.92;42.12
42671;BME280;28283;55.426;37.756;2023-06-19T22:24:10;99288.50;;;16.68;42.56
42671;BME280;28283;55.426;37.756;2023-06-19T22:29:11;99291.22;;;16.68;43.61
42671;BME280;28283;55.426;37.756;2023-06-19T22:34:13;99307.94;;;16.77;42.00
42671;BME280;28283;55.426;37.756;2023-06-19T22:39:13;99251.97;;;16.59;41.99
42671;BME280;28283;55.426;37.756;2023-06-19T22:44:14;99284.44;;;16.83;42.59
42671;BME280;28283;55.426;37.756;2023-06-19T22:49:15;99272.31;;;16.73;42.18
42671;BME280;28283;55.426;37.756;2023-06-19T22:54:15;99295.03;;;16.96;41.78
42671;BME280;28283;55.426;37.756;2023-06-19T22:59:19;99282.91;;;16.87;42.75
42671;BME280;28283;55.426;37.756;2023-06-19T23:04:20;99277.72;;;16.85;42.33
42671;BME280;28283;55.426;37.756;2023-06-19T23:09:23;99251.00;;;16.65;42.17
42671;BME280;28283;55.426;37.756;2023-06-19T23:14:24;99268.22;;;16.71;42.42
42671;BME280;28283;55.426;37.756;2023-06-19T23:19:25;99281.91;;;16.64;42.72
42671;BME280;28283;55.426;37.756;2023-06-19T23:24:26;99287.72;;;16.56;43.20
42671;BME280;28283;55.426;37.756;2023-06-19T23:29:28;99269.25;;;16.41;43.92
42671;BME280;28283;55.426;37.756;2023-06-19T23:34:32;99270.72;;;16.32;43.75
42671;BME280;28283;55.426;37.756;2023-06-19T23:39:33;99259.53;;;16.28;42.82
42671;BME280;28283;55.426;37.756;2023-06-19T23:44:34;99255.47;;;16.42;42.70
42671;BME280;28283;55.426;37.756;2023-06-19T23:49:35;99263.59;;;16.71;41.46
42671;BME280;28283;55.426;37.756;2023-06-19T23:54:38;99253.91;;;16.47;42.59
42671;BME280;28283;55.426;37.756;2023-06-19T23:59:38;99266.91;;;16.33;43.01
